Beatty, Nevada Weather observations

Data are for observation ending at time listed.
 Day   Time    Ave.   Ave.  Ave.  Vector   Max.   Stn.    Total    Solar   Ave.  
  of    of     Air    Rel.  Wind   Wind    Wind   Baro.  Precip.   Rad.    Soil  
Year   Day     Temp.  Hum.  Speed  Dir.    Gust   Pres.                    Temp. 
2016   (PST)    F      %     mph   deg.    mph     mb.     in.     W/m2     F   
------------------------------------------------------------------------------
 270   18:30   74.9    17    0.4   338      2.1   902.3    0.00       0    78.9
 270   18:40   75.1    16    0.6    49      1.9   902.5    0.00       0    78.9
 270   18:50   74.4    18    0.6   320      2.3   902.6    0.00       0    79.0
 270   19:00   73.6    17    0.6    25      1.8   902.7    0.00       0    79.0
 270   19:10   73.2    17    1.2    44      2.0   902.8    0.00       0    79.0
 270   19:20   72.0    19    1.5    20      3.3   902.8    0.00       0    79.1
 270   19:30   71.3    17    1.8    35      3.2   903.0    0.00       0    79.1
 270   19:40   70.5    17    1.8    15      3.5   903.1    0.00       0    79.1
 270   19:50   69.1    17    2.8    11      4.2   903.2    0.00       0    79.1
 270   20:00   68.7    18    1.8    40      3.6   903.2    0.00       0    79.1
 270   20:10   67.6    18    2.0    49      3.4   903.3    0.00       0    79.2
 270   20:20   67.8    18    2.5     0      4.4   903.3    0.00       0    79.2
 270   20:30   67.7    18    3.1    12      5.1   903.3    0.00       0    79.2
 270   20:40   68.1    17    3.2    13      6.0   903.3    0.00       0    79.2
 270   20:50   67.4    18    3.2     6      6.6   903.4    0.00       0    79.2
 270   21:00   67.0    18    3.4   358      5.3   903.3    0.00       0    79.2
 270   21:10   68.4    17    4.0    13      6.6   903.3    0.00       0    79.2
 270   21:20   69.0    17    3.8     3      6.8   903.3    0.00       0    79.2
 270   21:30   69.7    16    2.4    30      4.7   903.4    0.00       0    79.2
 270   21:40   71.4    15    2.1    28      4.4   903.4    0.00       0    79.2
 270   21:50   69.2    17    5.4   355      8.0   903.4    0.00       0    79.2
 270   22:00   67.2    18    5.4   349      8.0   903.4    0.00       0    79.2
 270   22:10   66.9    18    5.4   349      8.1   903.4    0.00       0    79.2
 270   22:20   66.4    18    5.0   341      7.2   903.3    0.00       0    79.2
 270   22:30   67.5    18    2.8     9      5.8   903.4    0.00       0    79.2
 270   22:40   69.8    16    3.5    40      7.4   903.4    0.00       0    79.2
 270   22:50   69.4    16    4.1    39      8.0   903.4    0.00       0    79.2
 270   23:00   66.9    17    4.9     8      9.6   903.5    0.00       0    79.2
 270   23:10   64.4    19    3.7    22      7.2   903.5    0.00       0    79.2
 270   23:20   65.4    18    3.3    45      7.3   903.5    0.00       0    79.2
 270   23:30   66.6    18    3.4    52      8.2   903.5    0.00       0    79.2
 270   23:40   68.4    17    3.6    69      7.4   903.5    0.00       0    79.2
 270   23:50   69.0    16    3.9    61      8.5   903.4    0.00       0    79.1
 271    0:00   69.0    16    3.0    53      8.5   903.4    0.00       0    79.1
 271    0:10   68.7    17    3.6    55      7.7   903.4    0.00       0    79.1
 271    0:20   67.9    17    3.1    40      8.3   903.4    0.00       0    79.1
 271    0:30   65.1    19    5.8   359      9.4   903.4    0.00       0    79.1
 271    0:40   61.1    22    4.9   359      8.3   903.4    0.00       0    79.1
 271    0:50   60.8    22    5.2   357      9.7   903.4    0.00       0    79.0
 271    1:00   61.7    22    4.7    10      8.6   903.4    0.00       0    79.0
 271    1:10   64.0    20    4.7    21      9.0   903.4    0.00       0    78.9
 271    1:20   62.1    21    5.2    18      9.9   903.3    0.00       0    78.9
 271    1:30   62.5    21    4.8    30     10.0   903.2    0.00       0    78.9
 271    1:40   64.3    20    4.1    25      9.4   903.2    0.00       0    78.9
 271    1:50   62.8    21    5.0     8      9.1   903.1    0.00       0    78.8
 271    2:00   60.9    22    5.6     1      8.8   903.0    0.00       0    78.8
 271    2:10   61.1    22    5.5    19      9.6   902.9    0.00       0    78.7
 271    2:20   64.5    20    4.5    30      9.0   902.8    0.00       0    78.7
 271    2:30   65.3    19    5.9    30     13.2   902.8    0.00       0    78.7
 271    2:40   62.7    21    5.7    10     11.3   902.8    0.00       0    78.6
 271    2:50   62.3    21    5.8    27     12.0   902.7    0.00       0    78.6
 271    3:00   64.6    20    5.9    50     12.2   902.7    0.00       0    78.5
 271    3:10   64.0    20    5.2    35     11.9   902.8    0.00       0    78.5
 271    3:20   63.4    21    6.4    20     12.6   902.8    0.00       0    78.5
 271    3:30   62.9    21    6.8    18     11.8   902.8    0.00       0    78.4
 271    3:40   62.6    22    5.7    14     10.4   902.8    0.00       0    78.4
 271    3:50   61.0    23    5.6    11     10.8   902.9    0.00       0    78.3
 271    4:00   60.4    24    6.0     2     13.1   902.9    0.00       0    78.3
 271    4:10   59.3    24    6.2   360      9.8   902.8    0.00       0    78.3
 271    4:20   60.0    24    6.1    22     12.0   902.8    0.00       0    78.2
 271    4:30   60.7    23    6.3    15     11.5   902.8    0.00       0    78.2
 271    4:40   61.7    22    5.6    26     10.2   902.8    0.00       0    78.1
 271    4:50   61.8    22    6.2    23     12.3   902.9    0.00       0    78.1
 271    5:00   60.4    23    6.2     2     10.0   902.9    0.00       0    78.0
 271    5:10   59.1    24    6.2   358      9.5   903.0    0.00       0    78.0
 271    5:20   59.6    24    5.6    23     11.2   903.0    0.00       0    77.9
 271    5:30   60.6    23    6.6    28     13.3   903.0    0.00       0    77.9
 271    5:40   59.4    24    5.2     6     10.3   903.1    0.00       1    77.8
 271    5:50   59.1    24    5.5     2      9.1   903.2    0.00       4    77.8
 271    6:00   60.2    23    6.7    20     12.3   903.2    0.00       7    77.7
 271    6:10   60.4    23    6.4    27     11.7   903.2    0.00      11    77.7
 271    6:20   60.7    23    5.8    17     10.7   903.3    0.00      12    77.6
 271    6:30   60.8    23    5.7    23     11.8   903.4    0.00      15    77.6
 271    6:40   61.7    22    7.0    29     11.4   903.5    0.00      19    77.5
 271    6:50   63.0    22    5.2    20     10.4   903.5    0.00      54    77.5
 271    7:00   64.4    20    5.3    12     10.4   903.5    0.00      65    77.4
 271    7:10   65.6    20    5.5    28     10.7   903.5    0.00      40    77.3
 271    7:20   66.4    19    5.7    29     11.9   903.5    0.00      74    77.3
 271    7:30   66.9    19    4.4    49      9.5   903.5    0.00     209    77.2
 271    7:40   67.6    18    5.0    45     10.7   903.6    0.00     309    77.1
 271    7:50   68.3    18    6.1    33     11.0   903.5    0.00     337    77.1
 271    8:00   69.2    17    6.3    30     12.0   903.6    0.00     362    77.0
 271    8:10   70.3    16    6.2    34     10.7   903.5    0.00     385    77.0
 271    8:20   71.7    16    4.6    31     10.6   903.4    0.00     405    76.9
 271    8:30   73.5    15    2.8    47      9.8   903.3    0.00     425    76.9
 271    8:40   75.3    14    2.5    73      7.3   903.3    0.00     445    76.8
 271    8:50   75.8    14    5.1    82      8.7   903.3    0.00     468    76.8
 271    9:00   76.4    14    5.8    86     10.0   903.2    0.00     489    76.7
 271    9:10   78.0    13    4.3    88      8.8   903.0    0.00     508    76.7
 271    9:20   78.8    13    5.2    87      9.6   903.0    0.00     528    76.6
 271    9:30   80.9    13    2.5    87      5.2   902.9    0.00     547    76.6
 271    9:40   82.2    13    2.7    85      7.0   902.7    0.00     564    76.6
 271    9:50   82.8    13    3.2    85      6.9   902.5    0.00     580    76.5
 271   10:00   83.5    12    2.5    82      5.0   902.3    0.00     596    76.4
 271   10:10   85.0    12    1.1    72      3.8   902.2    0.00     609    76.4
 271   10:20   86.0    12    1.7    76      3.9   902.1    0.00     620    76.4
 271   10:30   86.8    12    0.8   126      3.8   901.9    0.00     632    76.4
 271   10:40   86.5    12    3.1   223      6.5   901.8    0.00     637    76.4
 271   10:50   86.5    12    2.6   226      4.9   901.6    0.00     646    76.4
 271   11:00   86.7    12    3.3   211      6.7   901.4    0.00     651    76.3
 271   11:10   86.8    12    4.2   208     12.1   901.3    0.00     658    76.3
 271   11:20   86.6    12    2.4   220      8.9   901.2    0.00     664    76.3
 271   11:30   87.3    12    2.9   284      5.4   901.0    0.00     669    76.3
 271   11:40   87.3    12    5.7   223     10.5   900.9    0.00     666    76.3
 271   11:50   86.5    12    3.2   254      9.4   900.8    0.00     669    76.3
 271   12:00   87.3    12    2.7   298      6.2   900.5    0.00     668    76.4
 271   12:10   88.4    12    2.0   303      4.6   900.4    0.00     663    76.4
 271   12:20   89.6    11    4.0   201      8.2   900.2    0.00     652    76.5
 271   12:30   89.1    11    5.2   194     10.4   900.1    0.00     645    76.6
 271   12:40   88.3    12    3.0   230      8.3   900.0    0.00     640    76.6
 271   12:50   89.4    11    2.3   230      6.7   899.9    0.00     632    76.7
 271   13:00   88.8    12    4.1   255      9.9   899.7    0.00     623    76.7
 271   13:10   89.5    11    6.3   198     11.2   899.6    0.00     606    76.8
 271   13:20   88.6    12    4.4   235     11.5   899.5    0.00     596    76.9
 271   13:30   89.0    12    4.6   248     10.7   899.4    0.00     583    77.0
 271   13:40   88.3    12    3.3   292      7.5   899.3    0.00     526    77.1
 271   13:50   89.3    11    4.5   207     10.4   899.2    0.00     549    77.2
 271   14:00   89.1    12    4.1   236     10.8   899.1    0.00     531    77.3
 271   14:10   88.7    11    5.1   219     11.4   899.0    0.00     511    77.4
 271   14:20   89.8    11    5.6   174     11.1   899.0    0.00     446    77.5
 271   14:30   89.1    11    5.8   204     12.8   898.9    0.00      32    77.5
 271   14:40   89.3    11    7.6   212     16.3   898.8    0.00      29    77.6
 271   14:50   89.1    11    7.4   220     13.7   898.7    0.00      45    77.6
 271   15:00   88.6    11    6.3   221     14.2   898.7    0.00      38    77.7
 271   15:10   88.5    11    5.5   224     12.1   898.6    0.00      29    77.8
 271   15:20   88.9    11    7.0   221     14.9   898.6    0.00      28    78.0
 271   15:30   88.0    11    3.9   236     13.2   898.7    0.00      45    78.1
 271   15:40   88.0    11    5.3   209     10.8   898.7    0.00      27    78.2
 271   15:50   87.9    11    5.8   196     11.5   898.6    0.00      23    78.2
 271   16:00   87.8    11    5.2   222     11.6   898.6    0.00      25    78.3
 271   16:10   87.8    11    6.9   215     11.9   898.6    0.00      24    78.4
 271   16:20   88.3    11    4.6   223      8.0   898.6    0.00      23    78.5
 271   16:30   88.2    11    7.0   213     11.9   898.5    0.00      25    78.6
 271   16:40   87.8    12    6.0   220     11.3   898.6    0.00      37    78.8
 271   16:50   87.6    12    5.0   223      8.6   898.6    0.00      51    78.9
 271   17:00   87.4    12    4.8   217      7.7   898.6    0.00      69    78.9
 271   17:10   86.8    12    4.9   227      8.6   898.6    0.00      57    78.9
 271   17:20   85.4    12    3.6   234      6.0   898.7    0.00      24    79.0
 271   17:30   84.5    12    4.1   229      6.9   898.7    0.00       8    79.1
 271   17:40   84.2    12    4.4   227      7.4   898.8    0.00       4    79.1
 271   17:50   83.6    13    3.6   230      8.0   898.8    0.00       1    79.2
 271   18:00   82.8    13    2.9   231      5.0   898.9    0.00       0    79.2
 271   18:10   82.3    13    2.7   222      5.2   899.0    0.00       0    79.3
 271   18:20   81.4    13    2.2   214      3.9   899.0    0.00       0    79.3

Return to Beatty, Nevada graphs page.


Western Regional Climate Center,wrcc@dri.edu